sensor_id;sensor_type;location;lat;lon;timestamp;temperature;humidity
27567;DHT22;15006;48.584;9.186;2023-09-19T00:00:34;13.10;94.10
27567;DHT22;15006;48.584;9.186;2023-09-19T00:03:01;13.10;94.30
27567;DHT22;15006;48.584;9.186;2023-09-19T00:05:29;13.10;94.40
27567;DHT22;15006;48.584;9.186;2023-09-19T00:07:56;13.00;94.40
27567;DHT22;15006;48.584;9.186;2023-09-19T00:10:26;13.10;94.60
27567;DHT22;15006;48.584;9.186;2023-09-19T00:12:56;13.10;94.60
27567;DHT22;15006;48.584;9.186;2023-09-19T00:15:27;13.00;94.80
27567;DHT22;15006;48.584;9.186;2023-09-19T00:17:56;13.00;94.70
27567;DHT22;15006;48.584;9.186;2023-09-19T00:20:22;13.00;94.80
27567;DHT22;15006;48.584;9.186;2023-09-19T00:22:49;13.00;94.80
27567;DHT22;15006;48.584;9.186;2023-09-19T00:25:18;13.00;94.80
27567;DHT22;15006;48.584;9.186;2023-09-19T00:27:43;13.10;94.90
27567;DHT22;15006;48.584;9.186;2023-09-19T00:30:12;13.10;95.00
27567;DHT22;15006;48.584;9.186;2023-09-19T00:32:47;13.10;95.20
27567;DHT22;15006;48.584;9.186;2023-09-19T00:35:14;13.10;95.30
27567;DHT22;15006;48.584;9.186;2023-09-19T00:37:44;13.10;95.30
27567;DHT22;15006;48.584;9.186;2023-09-19T00:40:11;13.10;95.20
27567;DHT22;15006;48.584;9.186;2023-09-19T00:42:41;13.10;95.20
27567;DHT22;15006;48.584;9.186;2023-09-19T00:45:12;13.10;95.80
27567;DHT22;15006;48.584;9.186;2023-09-19T00:47:44;13.10;95.50
27567;DHT22;15006;48.584;9.186;2023-09-19T00:50:19;13.10;95.60
27567;DHT22;15006;48.584;9.186;2023-09-19T00:52:48;13.10;95.40
27567;DHT22;15006;48.584;9.186;2023-09-19T00:55:16;13.10;95.40
27567;DHT22;15006;48.584;9.186;2023-09-19T00:57:45;13.10;95.30
27567;DHT22;15006;48.584;9.186;2023-09-19T01:00:13;13.10;95.20
27567;DHT22;15006;48.584;9.186;2023-09-19T01:02:42;13.10;95.10
27567;DHT22;15006;48.584;9.186;2023-09-19T01:05:10;13.10;95.00
27567;DHT22;15006;48.584;9.186;2023-09-19T01:07:36;13.10;95.00
27567;DHT22;15006;48.584;9.186;2023-09-19T01:10:05;13.10;94.90
27567;DHT22;15006;48.584;9.186;2023-09-19T01:12:55;13.10;94.80
27567;DHT22;15006;48.584;9.186;2023-09-19T01:25:50;13.20;94.50
27567;DHT22;15006;48.584;9.186;2023-09-19T01:28:45;13.20;94.30
27567;DHT22;15006;48.584;9.186;2023-09-19T01:31:20;13.20;94.20
27567;DHT22;15006;48.584;9.186;2023-09-19T01:34:00;13.20;94.00
27567;DHT22;15006;48.584;9.186;2023-09-19T01:36:34;13.30;94.10
27567;DHT22;15006;48.584;9.186;2023-09-19T01:39:04;13.20;93.80
27567;DHT22;15006;48.584;9.186;2023-09-19T01:47:55;13.30;94.00
27567;DHT22;15006;48.584;9.186;2023-09-19T01:50:32;13.30;94.00
27567;DHT22;15006;48.584;9.186;2023-09-19T01:53:10;13.30;94.10
27567;DHT22;15006;48.584;9.186;2023-09-19T01:56:00;13.30;93.80
27567;DHT22;15006;48.584;9.186;2023-09-19T01:58:34;13.30;94.00
27567;DHT22;15006;48.584;9.186;2023-09-19T02:01:05;13.30;93.80
27567;DHT22;15006;48.584;9.186;2023-09-19T02:03:35;13.30;93.60
27567;DHT22;15006;48.584;9.186;2023-09-19T02:06:02;13.30;93.60
27567;DHT22;15006;48.584;9.186;2023-09-19T02:08:30;13.30;94.00
27567;DHT22;15006;48.584;9.186;2023-09-19T02:10:59;13.30;93.70
27567;DHT22;15006;48.584;9.186;2023-09-19T02:13:25;13.30;93.70
27567;DHT22;15006;48.584;9.186;2023-09-19T02:15:53;13.20;94.00
27567;DHT22;15006;48.584;9.186;2023-09-19T02:18:19;13.30;93.70
27567;DHT22;15006;48.584;9.186;2023-09-19T02:20:46;13.20;93.70
27567;DHT22;15006;48.584;9.186;2023-09-19T02:23:12;13.20;93.70
27567;DHT22;15006;48.584;9.186;2023-09-19T02:25:39;13.20;93.60
27567;DHT22;15006;48.584;9.186;2023-09-19T02:28:06;13.20;93.50
27567;DHT22;15006;48.584;9.186;2023-09-19T02:30:32;13.10;93.40
27567;DHT22;15006;48.584;9.186;2023-09-19T02:32:59;13.10;93.30
27567;DHT22;15006;48.584;9.186;2023-09-19T02:35:28;13.10;93.20
27567;DHT22;15006;48.584;9.186;2023-09-19T02:37:56;13.00;93.10
27567;DHT22;15006;48.584;9.186;2023-09-19T02:40:22;13.00;93.10
27567;DHT22;15006;48.584;9.186;2023-09-19T02:42:54;13.00;93.10
27567;DHT22;15006;48.584;9.186;2023-09-19T02:45:21;12.90;93.10
27567;DHT22;15006;48.584;9.186;2023-09-19T02:47:48;12.90;92.90
27567;DHT22;15006;48.584;9.186;2023-09-19T02:50:15;12.80;92.80
27567;DHT22;15006;48.584;9.186;2023-09-19T02:52:45;12.80;92.70
27567;DHT22;15006;48.584;9.186;2023-09-19T02:55:18;12.70;92.70
27567;DHT22;15006;48.584;9.186;2023-09-19T02:57:49;12.60;92.50
27567;DHT22;15006;48.584;9.186;2023-09-19T03:00:18;12.60;92.30
27567;DHT22;15006;48.584;9.186;2023-09-19T03:02:48;12.50;92.30
27567;DHT22;15006;48.584;9.186;2023-09-19T03:05:15;12.40;92.20
27567;DHT22;15006;48.584;9.186;2023-09-19T03:07:41;12.40;92.20
27567;DHT22;15006;48.584;9.186;2023-09-19T03:10:09;12.30;92.40
27567;DHT22;15006;48.584;9.186;2023-09-19T03:12:35;12.30;92.80
27567;DHT22;15006;48.584;9.186;2023-09-19T03:15:02;12.30;93.20
27567;DHT22;15006;48.584;9.186;2023-09-19T03:17:30;12.20;93.50
27567;DHT22;15006;48.584;9.186;2023-09-19T03:19:56;12.20;93.90
27567;DHT22;15006;48.584;9.186;2023-09-19T03:22:22;12.30;94.40
27567;DHT22;15006;48.584;9.186;2023-09-19T03:24:50;12.30;94.70
27567;DHT22;15006;48.584;9.186;2023-09-19T03:27:16;12.30;94.90
27567;DHT22;15006;48.584;9.186;2023-09-19T03:29:42;12.30;95.10
27567;DHT22;15006;48.584;9.186;2023-09-19T03:32:08;12.40;95.40
27567;DHT22;15006;48.584;9.186;2023-09-19T03:34:40;12.40;95.40
27567;DHT22;15006;48.584;9.186;2023-09-19T03:37:09;12.40;95.50
27567;DHT22;15006;48.584;9.186;2023-09-19T03:39:35;12.50;95.40
27567;DHT22;15006;48.584;9.186;2023-09-19T03:42:02;12.50;95.40
27567;DHT22;15006;48.584;9.186;2023-09-19T03:44:32;12.50;95.60
27567;DHT22;15006;48.584;9.186;2023-09-19T03:46:58;12.60;95.80
27567;DHT22;15006;48.584;9.186;2023-09-19T03:49:24;12.60;95.30
27567;DHT22;15006;48.584;9.186;2023-09-19T03:51:50;12.60;95.90
27567;DHT22;15006;48.584;9.186;2023-09-19T03:54:16;12.70;95.70
27567;DHT22;15006;48.584;9.186;2023-09-19T03:56:43;12.70;95.80
27567;DHT22;15006;48.584;9.186;2023-09-19T03:59:09;12.70;95.90
27567;DHT22;15006;48.584;9.186;2023-09-19T04:01:35;12.70;96.10
27567;DHT22;15006;48.584;9.186;2023-09-19T04:04:01;12.80;96.20
27567;DHT22;15006;48.584;9.186;2023-09-19T04:06:34;12.80;96.30
27567;DHT22;15006;48.584;9.186;2023-09-19T04:09:03;12.80;96.20
27567;DHT22;15006;48.584;9.186;2023-09-19T04:11:30;12.80;96.20
27567;DHT22;15006;48.584;9.186;2023-09-19T04:13:57;12.90;96.30
27567;DHT22;15006;48.584;9.186;2023-09-19T04:16:23;12.80;96.10
27567;DHT22;15006;48.584;9.186;2023-09-19T04:18:48;12.90;96.10
27567;DHT22;15006;48.584;9.186;2023-09-19T04:21:14;12.90;95.90
27567;DHT22;15006;48.584;9.186;2023-09-19T04:23:41;12.90;95.80
27567;DHT22;15006;48.584;9.186;2023-09-19T04:26:07;12.90;95.70
27567;DHT22;15006;48.584;9.186;2023-09-19T04:28:33;12.80;95.70
27567;DHT22;15006;48.584;9.186;2023-09-19T04:31:00;12.80;95.80
27567;DHT22;15006;48.584;9.186;2023-09-19T04:33:26;12.70;96.00
27567;DHT22;15006;48.584;9.186;2023-09-19T04:35:55;12.70;95.80
27567;DHT22;15006;48.584;9.186;2023-09-19T04:38:22;12.70;95.80
27567;DHT22;15006;48.584;9.186;2023-09-19T04:40:49;12.70;95.80
27567;DHT22;15006;48.584;9.186;2023-09-19T04:43:14;12.60;95.80
27567;DHT22;15006;48.584;9.186;2023-09-19T04:45:43;12.60;95.90
27567;DHT22;15006;48.584;9.186;2023-09-19T04:48:09;12.50;95.90
27567;DHT22;15006;48.584;9.186;2023-09-19T04:50:36;12.50;95.90
27567;DHT22;15006;48.584;9.186;2023-09-19T04:53:02;12.50;96.00
27567;DHT22;15006;48.584;9.186;2023-09-19T04:55:28;12.40;96.20
27567;DHT22;15006;48.584;9.186;2023-09-19T04:57:56;12.40;96.50
27567;DHT22;15006;48.584;9.186;2023-09-19T05:00:23;12.40;96.60
27567;DHT22;15006;48.584;9.186;2023-09-19T05:03:05;12.40;96.90
27567;DHT22;15006;48.584;9.186;2023-09-19T05:05:31;12.40;97.60
27567;DHT22;15006;48.584;9.186;2023-09-19T05:07:57;12.50;97.30
27567;DHT22;15006;48.584;9.186;2023-09-19T05:10:31;12.50;97.40
27567;DHT22;15006;48.584;9.186;2023-09-19T05:12:58;12.50;97.50
27567;DHT22;15006;48.584;9.186;2023-09-19T05:15:26;12.60;97.60
27567;DHT22;15006;48.584;9.186;2023-09-19T05:17:52;12.60;97.60
27567;DHT22;15006;48.584;9.186;2023-09-19T05:20:20;12.60;97.70
27567;DHT22;15006;48.584;9.186;2023-09-19T05:23:05;12.70;97.70
27567;DHT22;15006;48.584;9.186;2023-09-19T05:25:45;12.70;97.90
27567;DHT22;15006;48.584;9.186;2023-09-19T05:28:14;12.80;97.80
27567;DHT22;15006;48.584;9.186;2023-09-19T05:30:40;12.80;97.80
27567;DHT22;15006;48.584;9.186;2023-09-19T05:33:09;12.90;97.80
27567;DHT22;15006;48.584;9.186;2023-09-19T05:35:37;12.90;97.60
27567;DHT22;15006;48.584;9.186;2023-09-19T05:38:05;13.00;97.60
27567;DHT22;15006;48.584;9.186;2023-09-19T05:40:34;13.00;97.50
27567;DHT22;15006;48.584;9.186;2023-09-19T05:43:03;13.10;97.40
27567;DHT22;15006;48.584;9.186;2023-09-19T05:45:40;13.20;97.30
27567;DHT22;15006;48.584;9.186;2023-09-19T05:48:15;13.20;97.30
27567;DHT22;15006;48.584;9.186;2023-09-19T05:50:44;13.20;97.10
27567;DHT22;15006;48.584;9.186;2023-09-19T05:53:15;13.30;97.00
27567;DHT22;15006;48.584;9.186;2023-09-19T05:55:41;13.30;96.70
27567;DHT22;15006;48.584;9.186;2023-09-19T05:58:07;13.40;96.60
27567;DHT22;15006;48.584;9.186;2023-09-19T06:00:34;13.40;96.50
27567;DHT22;15006;48.584;9.186;2023-09-19T06:03:00;13.40;96.40
27567;DHT22;15006;48.584;9.186;2023-09-19T06:05:27;13.40;96.30
27567;DHT22;15006;48.584;9.186;2023-09-19T06:07:56;13.40;96.30
27567;DHT22;15006;48.584;9.186;2023-09-19T06:10:26;13.40;96.30
27567;DHT22;15006;48.584;9.186;2023-09-19T06:12:54;13.40;96.30
27567;DHT22;15006;48.584;9.186;2023-09-19T06:15:21;13.40;96.10
27567;DHT22;15006;48.584;9.186;2023-09-19T06:17:55;13.30;96.10
27567;DHT22;15006;48.584;9.186;2023-09-19T06:20:28;13.20;96.60
27567;DHT22;15006;48.584;9.186;2023-09-19T06:22:55;13.10;97.10
27567;DHT22;15006;48.584;9.186;2023-09-19T06:25:21;13.00;97.20
27567;DHT22;15006;48.584;9.186;2023-09-19T06:27:52;13.00;97.70
27567;DHT22;15006;48.584;9.186;2023-09-19T06:30:21;12.90;98.20
27567;DHT22;15006;48.584;9.186;2023-09-19T06:32:48;12.90;98.40
27567;DHT22;15006;48.584;9.186;2023-09-19T06:35:16;12.80;98.50
27567;DHT22;15006;48.584;9.186;2023-09-19T06:37:43;12.80;98.70
27567;DHT22;15006;48.584;9.186;2023-09-19T06:40:14;12.70;99.10
27567;DHT22;15006;48.584;9.186;2023-09-19T06:42:46;12.70;99.60
27567;DHT22;15006;48.584;9.186;2023-09-19T06:45:14;12.60;99.90
27567;DHT22;15006;48.584;9.186;2023-09-19T06:47:49;12.60;99.90
27567;DHT22;15006;48.584;9.186;2023-09-19T06:50:16;12.50;99.90
27567;DHT22;15006;48.584;9.186;2023-09-19T06:52:51;12.50;99.90
27567;DHT22;15006;48.584;9.186;2023-09-19T06:55:20;12.50;99.90
27567;DHT22;15006;48.584;9.186;2023-09-19T06:57:49;12.50;99.90
27567;DHT22;15006;48.584;9.186;2023-09-19T07:00:16;12.60;99.90
27567;DHT22;15006;48.584;9.186;2023-09-19T07:03:01;12.60;99.90
27567;DHT22;15006;48.584;9.186;2023-09-19T07:05:30;12.60;99.90
27567;DHT22;15006;48.584;9.186;2023-09-19T07:07:57;12.70;99.90
27567;DHT22;15006;48.584;9.186;2023-09-19T07:10:25;12.70;99.90
27567;DHT22;15006;48.584;9.186;2023-09-19T07:13:00;12.80;99.90
27567;DHT22;15006;48.584;9.186;2023-09-19T07:15:28;12.80;99.90
27567;DHT22;15006;48.584;9.186;2023-09-19T07:17:55;12.90;99.90
27567;DHT22;15006;48.584;9.186;2023-09-19T07:20:23;13.00;99.90
27567;DHT22;15006;48.584;9.186;2023-09-19T07:22:54;13.10;99.90
27567;DHT22;15006;48.584;9.186;2023-09-19T07:25:25;13.30;99.90
27567;DHT22;15006;48.584;9.186;2023-09-19T07:27:51;13.40;99.90
27567;DHT22;15006;48.584;9.186;2023-09-19T07:30:18;13.50;99.90
27567;DHT22;15006;48.584;9.186;2023-09-19T07:32:44;13.60;99.90
27567;DHT22;15006;48.584;9.186;2023-09-19T07:35:09;13.80;99.90
27567;DHT22;15006;48.584;9.186;2023-09-19T07:37:35;13.90;99.90
27567;DHT22;15006;48.584;9.186;2023-09-19T07:40:06;14.00;99.90
27567;DHT22;15006;48.584;9.186;2023-09-19T07:42:36;14.00;99.90
27567;DHT22;15006;48.584;9.186;2023-09-19T07:45:09;14.10;99.90
27567;DHT22;15006;48.584;9.186;2023-09-19T07:47:47;14.20;99.90
27567;DHT22;15006;48.584;9.186;2023-09-19T07:50:14;14.20;99.90
27567;DHT22;15006;48.584;9.186;2023-09-19T07:52:42;14.20;99.90
27567;DHT22;15006;48.584;9.186;2023-09-19T07:55:08;14.30;99.90
27567;DHT22;15006;48.584;9.186;2023-09-19T07:57:35;14.30;99.90
27567;DHT22;15006;48.584;9.186;2023-09-19T08:00:02;14.40;99.90
27567;DHT22;15006;48.584;9.186;2023-09-19T08:02:35;14.50;99.90
27567;DHT22;15006;48.584;9.186;2023-09-19T08:05:01;14.60;99.90
27567;DHT22;15006;48.584;9.186;2023-09-19T08:07:32;14.70;99.90
27567;DHT22;15006;48.584;9.186;2023-09-19T08:09:58;14.90;99.90
27567;DHT22;15006;48.584;9.186;2023-09-19T08:12:24;15.00;99.70
27567;DHT22;15006;48.584;9.186;2023-09-19T08:14:51;15.10;99.90
27567;DHT22;15006;48.584;9.186;2023-09-19T08:17:16;15.10;99.90
27567;DHT22;15006;48.584;9.186;2023-09-19T08:19:42;15.30;99.60
27567;DHT22;15006;48.584;9.186;2023-09-19T08:22:10;15.50;96.90
27567;DHT22;15006;48.584;9.186;2023-09-19T08:24:36;15.60;96.40
27567;DHT22;15006;48.584;9.186;2023-09-19T08:27:04;15.70;94.40
27567;DHT22;15006;48.584;9.186;2023-09-19T08:29:31;15.70;90.60
27567;DHT22;15006;48.584;9.186;2023-09-19T08:31:58;15.70;91.00
27567;DHT22;15006;48.584;9.186;2023-09-19T08:34:25;15.60;91.30
27567;DHT22;15006;48.584;9.186;2023-09-19T08:36:52;15.60;91.60
27567;DHT22;15006;48.584;9.186;2023-09-19T08:39:23;15.60;91.00
27567;DHT22;15006;48.584;9.186;2023-09-19T08:41:49;15.50;91.00
27567;DHT22;15006;48.584;9.186;2023-09-19T08:44:16;15.50;91.80
27567;DHT22;15006;48.584;9.186;2023-09-19T08:46:43;15.50;91.30
27567;DHT22;15006;48.584;9.186;2023-09-19T08:49:35;15.50;91.60
27567;DHT22;15006;48.584;9.186;2023-09-19T08:52:20;15.40;87.90
27567;DHT22;15006;48.584;9.186;2023-09-19T08:54:48;15.40;91.10
27567;DHT22;15006;48.584;9.186;2023-09-19T08:57:18;15.40;91.40
27567;DHT22;15006;48.584;9.186;2023-09-19T08:59:48;15.30;91.80
27567;DHT22;15006;48.584;9.186;2023-09-19T09:02:18;15.30;91.50
27567;DHT22;15006;48.584;9.186;2023-09-19T09:04:45;15.30;92.00
27567;DHT22;15006;48.584;9.186;2023-09-19T09:07:13;15.30;92.20
27567;DHT22;15006;48.584;9.186;2023-09-19T09:09:40;15.50;90.90
27567;DHT22;15006;48.584;9.186;2023-09-19T09:12:17;15.60;91.60
27567;DHT22;15006;48.584;9.186;2023-09-19T09:14:45;15.80;90.70
27567;DHT22;15006;48.584;9.186;2023-09-19T09:17:16;16.10;89.10
27567;DHT22;15006;48.584;9.186;2023-09-19T09:19:48;16.30;90.60
27567;DHT22;15006;48.584;9.186;2023-09-19T09:22:14;16.60;89.70
27567;DHT22;15006;48.584;9.186;2023-09-19T09:24:53;16.80;86.50
27567;DHT22;15006;48.584;9.186;2023-09-19T09:27:20;17.00;79.20
27567;DHT22;15006;48.584;9.186;2023-09-19T09:29:49;17.20;81.20
27567;DHT22;15006;48.584;9.186;2023-09-19T09:34:52;17.60;76.50
27567;DHT22;15006;48.584;9.186;2023-09-19T09:37:20;17.70;77.70
27567;DHT22;15006;48.584;9.186;2023-09-19T09:40:01;17.90;77.00
27567;DHT22;15006;48.584;9.186;2023-09-19T09:42:39;18.00;76.40
27567;DHT22;15006;48.584;9.186;2023-09-19T09:45:18;18.00;73.30
27567;DHT22;15006;48.584;9.186;2023-09-19T09:47:49;18.00;67.20
27567;DHT22;15006;48.584;9.186;2023-09-19T09:50:31;18.00;71.50
27567;DHT22;15006;48.584;9.186;2023-09-19T09:53:28;17.80;70.60
27567;DHT22;15006;48.584;9.186;2023-09-19T09:56:07;17.80;72.30
27567;DHT22;15006;48.584;9.186;2023-09-19T09:58:49;17.90;69.70
27567;DHT22;15006;48.584;9.186;2023-09-19T10:01:20;17.90;68.60
27567;DHT22;15006;48.584;9.186;2023-09-19T10:03:46;18.00;73.20
27567;DHT22;15006;48.584;9.186;2023-09-19T10:06:17;18.10;73.70
27567;DHT22;15006;48.584;9.186;2023-09-19T10:09:00;18.30;74.10
27567;DHT22;15006;48.584;9.186;2023-09-19T10:11:45;18.50;67.70
27567;DHT22;15006;48.584;9.186;2023-09-19T10:14:17;18.60;68.90
27567;DHT22;15006;48.584;9.186;2023-09-19T10:16:49;18.70;70.50
27567;DHT22;15006;48.584;9.186;2023-09-19T10:19:42;18.90;71.70
27567;DHT22;15006;48.584;9.186;2023-09-19T10:22:14;19.10;67.30
27567;DHT22;15006;48.584;9.186;2023-09-19T10:24:48;19.30;68.90
27567;DHT22;15006;48.584;9.186;2023-09-19T10:27:20;19.40;66.80
27567;DHT22;15006;48.584;9.186;2023-09-19T10:29:51;19.40;66.00
27567;DHT22;15006;48.584;9.186;2023-09-19T10:32:22;19.50;63.40
27567;DHT22;15006;48.584;9.186;2023-09-19T10:34:49;19.50;63.60
27567;DHT22;15006;48.584;9.186;2023-09-19T10:37:20;19.40;65.40
27567;DHT22;15006;48.584;9.186;2023-09-19T10:39:52;19.30;62.10
27567;DHT22;15006;48.584;9.186;2023-09-19T10:42:20;19.10;63.40
27567;DHT22;15006;48.584;9.186;2023-09-19T10:44:50;19.00;64.80
27567;DHT22;15006;48.584;9.186;2023-09-19T10:47:20;19.00;65.50
27567;DHT22;15006;48.584;9.186;2023-09-19T10:49:47;19.00;66.70
27567;DHT22;15006;48.584;9.186;2023-09-19T10:52:15;18.90;66.70
27567;DHT22;15006;48.584;9.186;2023-09-19T10:54:51;18.90;67.70
27567;DHT22;15006;48.584;9.186;2023-09-19T10:57:24;19.00;61.80
27567;DHT22;15006;48.584;9.186;2023-09-19T11:00:06;19.00;63.30
27567;DHT22;15006;48.584;9.186;2023-09-19T11:03:16;18.90;62.50
27567;DHT22;15006;48.584;9.186;2023-09-19T11:06:16;18.80;60.20
27567;DHT22;15006;48.584;9.186;2023-09-19T11:08:53;18.70;59.30
27567;DHT22;15006;48.584;9.186;2023-09-19T11:11:42;18.50;62.70
27567;DHT22;15006;48.584;9.186;2023-09-19T11:14:15;18.40;60.80
27567;DHT22;15006;48.584;9.186;2023-09-19T11:30:41;18.10;63.20
27567;DHT22;15006;48.584;9.186;2023-09-19T11:36:14;18.30;65.70
27567;DHT22;15006;48.584;9.186;2023-09-19T11:49:18;19.90;58.50
27567;DHT22;15006;48.584;9.186;2023-09-19T11:51:51;20.20;65.10
27567;DHT22;15006;48.584;9.186;2023-09-19T11:54:17;20.40;63.20
27567;DHT22;15006;48.584;9.186;2023-09-19T11:56:45;20.60;64.10
27567;DHT22;15006;48.584;9.186;2023-09-19T11:59:20;20.60;62.30
27567;DHT22;15006;48.584;9.186;2023-09-19T12:02:04;20.60;58.50
27567;DHT22;15006;48.584;9.186;2023-09-19T12:04:41;20.60;56.30
27567;DHT22;15006;48.584;9.186;2023-09-19T12:07:10;20.60;58.90
27567;DHT22;15006;48.584;9.186;2023-09-19T12:12:10;20.60;60.90
27567;DHT22;15006;48.584;9.186;2023-09-19T12:14:41;20.70;61.60
27567;DHT22;15006;48.584;9.186;2023-09-19T12:17:09;21.00;62.10
27567;DHT22;15006;48.584;9.186;2023-09-19T12:19:35;21.20;61.70
27567;DHT22;15006;48.584;9.186;2023-09-19T12:22:02;21.40;61.50
27567;DHT22;15006;48.584;9.186;2023-09-19T12:24:35;21.80;61.10
27567;DHT22;15006;48.584;9.186;2023-09-19T12:27:05;22.10;58.40
27567;DHT22;15006;48.584;9.186;2023-09-19T12:29:44;22.40;58.80
27567;DHT22;15006;48.584;9.186;2023-09-19T12:32:11;22.80;54.90
27567;DHT22;15006;48.584;9.186;2023-09-19T12:34:38;23.00;56.00
27567;DHT22;15006;48.584;9.186;2023-09-19T12:37:14;23.30;55.50
27567;DHT22;15006;48.584;9.186;2023-09-19T12:40:04;23.50;55.70
27567;DHT22;15006;48.584;9.186;2023-09-19T12:42:43;23.70;51.70
27567;DHT22;15006;48.584;9.186;2023-09-19T12:45:11;24.00;55.60
27567;DHT22;15006;48.584;9.186;2023-09-19T12:47:39;24.20;56.50
27567;DHT22;15006;48.584;9.186;2023-09-19T12:50:09;24.40;56.30
27567;DHT22;15006;48.584;9.186;2023-09-19T12:52:41;24.70;54.40
27567;DHT22;15006;48.584;9.186;2023-09-19T12:55:21;24.80;53.30
27567;DHT22;15006;48.584;9.186;2023-09-19T12:58:13;25.00;48.60
27567;DHT22;15006;48.584;9.186;2023-09-19T13:00:45;24.90;44.30
27567;DHT22;15006;48.584;9.186;2023-09-19T13:05:58;24.60;50.50
27567;DHT22;15006;48.584;9.186;2023-09-19T13:08:28;24.50;50.90
27567;DHT22;15006;48.584;9.186;2023-09-19T13:11:14;24.30;50.20
27567;DHT22;15006;48.584;9.186;2023-09-19T13:13:45;24.10;46.30
27567;DHT22;15006;48.584;9.186;2023-09-19T13:16:16;23.90;51.90
27567;DHT22;15006;48.584;9.186;2023-09-19T13:18:45;23.90;54.40
27567;DHT22;15006;48.584;9.186;2023-09-19T13:21:32;24.10;47.60
27567;DHT22;15006;48.584;9.186;2023-09-19T13:24:22;24.30;49.20
27567;DHT22;15006;48.584;9.186;2023-09-19T13:26:51;24.50;45.80
27567;DHT22;15006;48.584;9.186;2023-09-19T13:29:17;24.50;49.50
27567;DHT22;15006;48.584;9.186;2023-09-19T13:31:48;24.50;49.10
27567;DHT22;15006;48.584;9.186;2023-09-19T13:34:15;24.40;50.50
27567;DHT22;15006;48.584;9.186;2023-09-19T13:36:43;24.50;52.20
27567;DHT22;15006;48.584;9.186;2023-09-19T13:39:10;24.50;52.80
27567;DHT22;15006;48.584;9.186;2023-09-19T13:41:38;24.70;51.70
27567;DHT22;15006;48.584;9.186;2023-09-19T13:44:05;24.80;51.20
27567;DHT22;15006;48.584;9.186;2023-09-19T13:46:31;24.90;50.80
27567;DHT22;15006;48.584;9.186;2023-09-19T13:49:01;25.00;51.60
27567;DHT22;15006;48.584;9.186;2023-09-19T13:51:31;25.10;52.30
27567;DHT22;15006;48.584;9.186;2023-09-19T13:53:58;25.20;48.40
27567;DHT22;15006;48.584;9.186;2023-09-19T13:56:26;25.10;49.50
27567;DHT22;15006;48.584;9.186;2023-09-19T13:58:55;25.10;49.70
27567;DHT22;15006;48.584;9.186;2023-09-19T14:01:21;25.00;49.10
27567;DHT22;15006;48.584;9.186;2023-09-19T14:03:47;25.00;49.50
27567;DHT22;15006;48.584;9.186;2023-09-19T14:06:15;25.00;49.90
27567;DHT22;15006;48.584;9.186;2023-09-19T14:08:42;25.10;49.70
27567;DHT22;15006;48.584;9.186;2023-09-19T14:11:08;25.10;51.80
27567;DHT22;15006;48.584;9.186;2023-09-19T14:13:34;25.30;52.00
27567;DHT22;15006;48.584;9.186;2023-09-19T14:16:05;25.50;51.30
27567;DHT22;15006;48.584;9.186;2023-09-19T14:18:32;25.70;48.10
27567;DHT22;15006;48.584;9.186;2023-09-19T14:21:01;25.80;48.50
27567;DHT22;15006;48.584;9.186;2023-09-19T14:23:29;25.80;46.50
27567;DHT22;15006;48.584;9.186;2023-09-19T14:25:54;25.60;46.90
27567;DHT22;15006;48.584;9.186;2023-09-19T14:28:21;25.60;48.70
27567;DHT22;15006;48.584;9.186;2023-09-19T14:30:47;25.40;47.30
27567;DHT22;15006;48.584;9.186;2023-09-19T14:33:14;25.20;46.30
27567;DHT22;15006;48.584;9.186;2023-09-19T14:35:41;25.10;47.00
27567;DHT22;15006;48.584;9.186;2023-09-19T14:38:07;25.00;47.30
27567;DHT22;15006;48.584;9.186;2023-09-19T14:40:33;24.90;47.30
27567;DHT22;15006;48.584;9.186;2023-09-19T14:42:59;24.80;48.30
27567;DHT22;15006;48.584;9.186;2023-09-19T14:45:24;24.70;46.80
27567;DHT22;15006;48.584;9.186;2023-09-19T14:47:51;24.50;46.30
27567;DHT22;15006;48.584;9.186;2023-09-19T14:50:20;24.30;45.50
27567;DHT22;15006;48.584;9.186;2023-09-19T14:52:47;24.00;44.90
27567;DHT22;15006;48.584;9.186;2023-09-19T14:55:16;23.80;45.70
27567;DHT22;15006;48.584;9.186;2023-09-19T14:57:42;23.70;46.90
27567;DHT22;15006;48.584;9.186;2023-09-19T15:00:12;23.60;48.10
27567;DHT22;15006;48.584;9.186;2023-09-19T15:02:39;23.60;47.80
27567;DHT22;15006;48.584;9.186;2023-09-19T15:05:06;23.60;47.80
27567;DHT22;15006;48.584;9.186;2023-09-19T15:07:35;23.60;46.70
27567;DHT22;15006;48.584;9.186;2023-09-19T15:10:03;23.60;47.70
27567;DHT22;15006;48.584;9.186;2023-09-19T15:12:33;23.60;48.10
27567;DHT22;15006;48.584;9.186;2023-09-19T15:14:59;23.70;46.50
27567;DHT22;15006;48.584;9.186;2023-09-19T15:17:35;23.70;48.00
27567;DHT22;15006;48.584;9.186;2023-09-19T15:20:02;23.70;44.40
27567;DHT22;15006;48.584;9.186;2023-09-19T15:22:29;23.70;49.30
27567;DHT22;15006;48.584;9.186;2023-09-19T15:24:55;23.80;49.60
27567;DHT22;15006;48.584;9.186;2023-09-19T15:27:22;23.90;48.10
27567;DHT22;15006;48.584;9.186;2023-09-19T15:29:48;24.00;46.80
27567;DHT22;15006;48.584;9.186;2023-09-19T15:32:14;24.10;45.80
27567;DHT22;15006;48.584;9.186;2023-09-19T15:34:40;24.10;46.90
27567;DHT22;15006;48.584;9.186;2023-09-19T15:37:06;24.10;47.30
27567;DHT22;15006;48.584;9.186;2023-09-19T15:39:32;24.20;47.40
27567;DHT22;15006;48.584;9.186;2023-09-19T15:42:02;24.20;46.00
27567;DHT22;15006;48.584;9.186;2023-09-19T15:44:28;24.20;44.50
27567;DHT22;15006;48.584;9.186;2023-09-19T15:46:54;24.00;44.90
27567;DHT22;15006;48.584;9.186;2023-09-19T15:49:20;23.90;45.70
27567;DHT22;15006;48.584;9.186;2023-09-19T15:51:46;23.80;45.80
27567;DHT22;15006;48.584;9.186;2023-09-19T15:54:13;23.70;47.30
27567;DHT22;15006;48.584;9.186;2023-09-19T15:56:41;23.70;47.20
27567;DHT22;15006;48.584;9.186;2023-09-19T15:59:08;23.70;46.90
27567;DHT22;15006;48.584;9.186;2023-09-19T16:01:36;23.80;47.60
27567;DHT22;15006;48.584;9.186;2023-09-19T16:04:03;23.80;45.80
27567;DHT22;15006;48.584;9.186;2023-09-19T16:06:31;23.80;45.50
27567;DHT22;15006;48.584;9.186;2023-09-19T16:08:59;23.70;47.00
27567;DHT22;15006;48.584;9.186;2023-09-19T16:11:28;23.70;46.70
27567;DHT22;15006;48.584;9.186;2023-09-19T16:13:55;23.60;46.60
27567;DHT22;15006;48.584;9.186;2023-09-19T16:16:22;23.60;48.50
27567;DHT22;15006;48.584;9.186;2023-09-19T16:18:54;23.60;47.00
27567;DHT22;15006;48.584;9.186;2023-09-19T16:21:30;23.60;46.60
27567;DHT22;15006;48.584;9.186;2023-09-19T16:23:58;23.50;48.60
27567;DHT22;15006;48.584;9.186;2023-09-19T16:26:25;23.40;48.00
27567;DHT22;15006;48.584;9.186;2023-09-19T16:28:57;23.40;47.40
27567;DHT22;15006;48.584;9.186;2023-09-19T16:31:30;23.30;45.80
27567;DHT22;15006;48.584;9.186;2023-09-19T16:34:01;23.00;46.40
27567;DHT22;15006;48.584;9.186;2023-09-19T16:36:28;22.60;45.10
27567;DHT22;15006;48.584;9.186;2023-09-19T16:38:54;22.30;46.20